KMML/MML METAR and TAF weather

Enter ICAO airport designator
Station Type Date Time Source
KMML METAR 2021/08/05 03:56 UTC NOAA

KMML 050356Z AUTO 19008KT 10SM -RA FEW044 BKN070 OVC090 21/17 A2999 RMK AO2 RAB06 SLP151 P0000 T02060172


Station Type Date Time Source
KMML Decoded METAR 2021/08/05 03:56 UTC NOAA

Marshall, Southwest Minnesota Regional Airport - Marshall/Ryan Field, MN, United States (KMML) 44-27N 095-49W
Aug 04, 2021 - 11:56 PM EDT / 2021.08.05 0356 UTC
Wind: from the S (190 degrees) at 9 MPH (8 KT):0
Visibility: 10 mile(s):0
Sky conditions: overcast
Weather: light rain
Precipitation last hour: A trace
Temperature: 69.1 F (20.6 C)
Dew Point: 63.0 F (17.2 C)
Relative Humidity: 80%
Pressure (altimeter): 29.99 in. Hg (1015 hPa)
ob: KMML 050356Z AUTO 19008KT 10SM -RA FEW044 BKN070 OVC090 21/17 A2999 RMK AO2 RAB06 SLP151 P0000 T02060172
cycle: 4

Station Type Date Time Source
KMML TAF UTC NOAA

Error!

Example: see airport list